Time;durP1;ratioP1;P1;durP2;ratioP2;P2;SDS_P1;SDS_P2;PMS_P1;PMS_P2;Temp;Humidity;BMP_temperature;BMP_pressure;BME280_temperature;BME280_humidity;BME280_pressure;Samples;Min_cycle;Max_cycle;Signal;HPM_P1;HPM_P2
2023/12/12 00:02:16;;;;;;;7.40;2.83;;;10.10;99.90;;;;;;5113715;28;20145;-70
2023/12/12 00:04:42;;;;;;;6.97;2.67;;;10.20;99.90;;;;;;5113080;28;20174;-69
2023/12/12 00:07:08;;;;;;;4.63;2.70;;;10.20;99.90;;;;;;5113697;28;20177;-69
2023/12/12 00:09:33;;;;;;;7.67;2.50;;;10.10;99.90;;;;;;5072550;28;20170;-69
2023/12/12 00:11:59;;;;;;;7.40;2.53;;;10.10;99.90;;;;;;5072468;28;20193;-69
2023/12/12 00:14:24;;;;;;;6.33;2.43;;;10.10;99.90;;;;;;5072529;28;20296;-69
2023/12/12 00:16:51;;;;;;;6.77;2.40;;;10.10;99.90;;;;;;5072386;28;20202;-68
2023/12/12 00:19:17;;;;;;;8.03;2.13;;;9.90;99.90;;;;;;5107205;28;20172;-70
2023/12/12 00:21:42;;;;;;;6.47;3.33;;;9.90;99.90;;;;;;5092355;28;20421;-69
2023/12/12 00:24:08;;;;;;;5.33;2.07;;;10.00;99.90;;;;;;5092776;28;20162;-69
2023/12/12 00:26:34;;;;;;;5.33;2.13;;;9.90;99.90;;;;;;5092868;28;20203;-69
2023/12/12 00:29:00;;;;;;;5.80;2.37;;;10.00;99.90;;;;;;5107891;28;20668;-69
2023/12/12 00:31:25;;;;;;;6.30;3.47;;;10.10;99.90;;;;;;5113295;28;20645;-68
2023/12/12 00:33:51;;;;;;;6.03;2.00;;;10.20;99.90;;;;;;5116395;28;20398;-70
2023/12/12 00:36:16;;;;;;;8.60;2.73;;;10.30;99.90;;;;;;5115319;28;20204;-71
2023/12/12 00:38:42;;;;;;;5.60;2.60;;;10.40;99.90;;;;;;5101654;28;20177;-69
2023/12/12 00:41:07;;;;;;;6.50;2.53;;;10.40;99.90;;;;;;5096414;28;20223;-69
2023/12/12 00:43:33;;;;;;;6.00;2.20;;;10.40;99.90;;;;;;5096421;28;20202;-69
2023/12/12 00:45:59;;;;;;;4.80;2.20;;;10.30;99.90;;;;;;5096443;28;20320;-70
2023/12/12 00:48:25;;;;;;;5.87;2.50;;;10.40;99.90;;;;;;5106679;28;20173;-70
2023/12/12 00:50:51;;;;;;;3.93;2.07;;;10.40;99.90;;;;;;5116569;28;20424;-70
2023/12/12 00:53:16;;;;;;;4.50;2.30;;;10.40;99.90;;;;;;5116289;28;20165;-70
2023/12/12 00:55:42;;;;;;;9.07;2.73;;;10.40;99.90;;;;;;5116430;28;20638;-70
2023/12/12 00:58:07;;;;;;;8.50;2.97;;;10.30;99.90;;;;;;5108406;28;20197;-70
2023/12/12 01:00:33;;;;;;;7.33;2.67;;;10.40;99.90;;;;;;5095759;28;20205;-70
2023/12/12 01:02:58;;;;;;;6.53;3.50;;;10.40;99.90;;;;;;5095685;28;20181;-70
2023/12/12 01:05:24;;;;;;;6.53;2.93;;;10.50;99.90;;;;;;5095649;28;20161;-70
2023/12/12 01:07:50;;;;;;;7.60;2.57;;;10.40;99.90;;;;;;5100579;28;20634;-70
2023/12/12 01:10:15;;;;;;;3.90;2.20;;;10.40;99.90;;;;;;5116186;28;20418;-70
2023/12/12 01:12:41;;;;;;;4.20;2.53;;;10.50;99.90;;;;;;5115951;28;20205;-70
2023/12/12 01:15:07;;;;;;;7.57;3.07;;;10.50;99.90;;;;;;5116232;28;20181;-70
2023/12/12 01:17:33;;;;;;;2.87;2.23;;;10.40;99.90;;;;;;5113415;28;20189;-70
2023/12/12 01:19:58;;;;;;;3.43;2.20;;;10.40;99.90;;;;;;5095569;28;20499;-70
2023/12/12 01:22:24;;;;;;;4.00;2.10;;;10.50;99.90;;;;;;5095841;28;20193;-70
2023/12/12 01:24:49;;;;;;;4.70;2.40;;;10.50;99.90;;;;;;5096001;28;20169;-70
2023/12/12 01:27:15;;;;;;;4.10;1.67;;;10.50;99.90;;;;;;5095562;28;20653;-71
2023/12/12 01:29:41;;;;;;;4.20;2.00;;;10.50;99.90;;;;;;5115514;28;20254;-71
2023/12/12 01:32:06;;;;;;;5.63;2.20;;;10.60;99.90;;;;;;5116482;28;20166;-70
2023/12/12 01:34:32;;;;;;;2.70;1.57;;;10.60;99.90;;;;;;5116160;28;20220;-70
2023/12/12 01:36:57;;;;;;;12.10;2.43;;;10.70;99.90;;;;;;5115722;28;20192;-70
2023/12/12 01:39:23;;;;;;;5.13;2.30;;;10.60;99.90;;;;;;5098010;28;20165;-70
2023/12/12 01:41:49;;;;;;;4.97;2.20;;;10.60;99.90;;;;;;5094830;28;20788;-70
2023/12/12 01:44:15;;;;;;;7.17;2.13;;;10.60;99.90;;;;;;5094203;28;20254;-70
2023/12/12 01:46:45;;;;;;;4.67;2.07;;;10.70;99.90;;;;;;5094809;28;20477;-70
2023/12/12 01:49:12;;;;;;;2.97;1.57;;;10.70;99.90;;;;;;5110400;28;20494;-69
2023/12/12 01:51:38;;;;;;;3.70;2.07;;;10.50;99.90;;;;;;5114986;28;20423;-70
2023/12/12 01:54:05;;;;;;;2.10;1.80;;;10.60;99.90;;;;;;5115255;28;20493;-69
2023/12/12 01:56:33;;;;;;;3.80;1.87;;;10.70;99.90;;;;;;5114868;28;20546;-69
2023/12/12 01:58:59;;;;;;;5.00;2.73;;;10.70;99.90;;;;;;5101087;28;20398;-70
2023/12/12 02:01:26;;;;;;;3.53;2.00;;;10.70;99.90;;;;;;5105080;28;20456;-69
2023/12/12 02:03:53;;;;;;;7.20;2.50;;;10.80;99.90;;;;;;5115020;28;20208;-70
2023/12/12 02:06:22;;;;;;;4.13;1.80;;;10.80;99.90;;;;;;5115029;28;20405;-70
2023/12/12 02:08:49;;;;;;;2.30;1.50;;;10.60;99.90;;;;;;5102770;28;20452;-69
2023/12/12 02:11:14;;;;;;;5.00;2.53;;;10.60;99.90;;;;;;5094230;28;20948;-70
2023/12/12 02:13:40;;;;;;;3.00;1.90;;;10.60;99.90;;;;;;5093822;28;20412;-71
2023/12/12 02:16:06;;;;;;;3.13;2.00;;;10.50;99.90;;;;;;5094432;28;20565;-70
2023/12/12 02:18:32;;;;;;;3.17;2.00;;;10.50;99.90;;;;;;5103871;28;20169;-69
2023/12/12 02:21:00;;;;;;;4.00;1.67;;;10.50;99.90;;;;;;5114576;28;20428;-69
2023/12/12 02:23:27;;;;;;;2.57;1.80;;;10.30;99.90;;;;;;5114434;28;20158;-70
2023/12/12 02:25:53;;;;;;;3.57;1.83;;;10.30;99.90;;;;;;5114865;28;20821;-70
2023/12/12 02:28:19;;;;;;;6.80;2.90;;;10.30;99.90;;;;;;5106640;28;20412;-70
2023/12/12 02:30:45;;;;;;;2.37;1.37;;;10.20;99.90;;;;;;5093974;28;20428;-70
2023/12/12 02:33:10;;;;;;;3.37;1.80;;;10.10;99.90;;;;;;5093849;28;20167;-69
2023/12/12 02:35:36;;;;;;;4.60;2.03;;;10.10;99.90;;;;;;5096366;28;20239;-69
2023/12/12 02:38:01;;;;;;;2.63;1.50;;;10.10;99.90;;;;;;5098824;28;20669;-70
2023/12/12 02:40:27;;;;;;;4.50;2.20;;;10.10;99.90;;;;;;5114022;28;20184;-69
2023/12/12 02:42:52;;;;;;;5.77;1.80;;;10.10;99.90;;;;;;5114280;28;20164;-69
2023/12/12 02:45:18;;;;;;;3.67;2.30;;;10.00;99.90;;;;;;5113824;28;20165;-69
2023/12/12 02:47:44;;;;;;;2.03;1.67;;;10.00;99.90;;;;;;5111312;28;20702;-69
2023/12/12 02:50:09;;;;;;;1.70;1.20;;;9.90;99.90;;;;;;5093490;28;20190;-70
2023/12/12 02:52:35;;;;;;;3.47;1.63;;;9.90;99.90;;;;;;5093588;28;20163;-69
2023/12/12 02:55:01;;;;;;;2.83;1.90;;;9.80;99.90;;;;;;5093869;28;20201;-69
2023/12/12 02:57:26;;;;;;;3.30;1.70;;;9.80;99.90;;;;;;5093794;28;20951;-69
2023/12/12 02:59:52;;;;;;;3.73;1.60;;;9.80;99.90;;;;;;5073133;28;20175;-70
2023/12/12 03:02:17;;;;;;;2.90;1.73;;;9.80;99.90;;;;;;5073391;28;20632;-70
2023/12/12 03:04:44;;;;;;;6.00;2.30;;;9.80;99.90;;;;;;5073111;28;20539;-70
2023/12/12 03:07:09;;;;;;;5.30;1.80;;;9.80;99.90;;;;;;5073019;28;20220;-70
2023/12/12 03:09:35;;;;;;;2.20;1.80;;;9.80;99.90;;;;;;5108686;28;20493;-69
2023/12/12 03:12:00;;;;;;;3.50;2.07;;;9.70;99.90;;;;;;5113500;28;20196;-69
2023/12/12 03:14:30;;;;;;;5.87;2.30;;;9.70;99.90;;;;;;5114286;28;20222;-70
2023/12/12 03:16:56;;;;;;;4.60;1.90;;;9.60;99.90;;;;;;5113327;28;20193;-69
2023/12/12 03:19:22;;;;;;;2.23;1.70;;;9.60;99.90;;;;;;5097594;28;20845;-70
2023/12/12 03:21:51;;;;;;;2.70;1.53;;;9.60;99.90;;;;;;5093206;28;20969;-70
2023/12/12 03:24:17;;;;;;;1.60;1.30;;;9.60;99.90;;;;;;5093024;28;20402;-70
2023/12/12 03:26:43;;;;;;;4.30;1.83;;;9.70;99.90;;;;;;5093003;28;20433;-70
2023/12/12 03:29:09;;;;;;;2.90;1.23;;;9.80;99.90;;;;;;5106786;28;20399;-70
2023/12/12 03:31:34;;;;;;;4.63;1.80;;;9.90;99.90;;;;;;5113540;28;20780;-70
2023/12/12 03:34:00;;;;;;;3.60;1.87;;;10.00;99.90;;;;;;5113467;28;20173;-70
2023/12/12 03:36:25;;;;;;;2.97;1.13;;;10.00;99.90;;;;;;5113553;28;20199;-69
2023/12/12 03:38:51;;;;;;;2.83;1.40;;;10.10;99.90;;;;;;5101984;28;20177;-70
2023/12/12 03:41:17;;;;;;;3.60;1.70;;;10.10;99.90;;;;;;5091694;28;20278;-69
2023/12/12 03:43:42;;;;;;;3.87;1.47;;;10.20;99.90;;;;;;5093019;28;20174;-70
2023/12/12 03:46:15;;;;;;;2.40;1.43;;;10.20;99.90;;;;;;5093009;28;20240;-70
2023/12/12 03:48:41;;;;;;;2.20;1.40;;;9.90;99.90;;;;;;5102469;28;20248;-70
2023/12/12 03:51:09;;;;;;;3.30;1.40;;;9.90;99.90;;;;;;5113037;28;20419;-70
2023/12/12 03:53:35;;;;;;;4.93;1.73;;;10.00;99.90;;;;;;5113387;28;20157;-70
2023/12/12 03:56:01;;;;;;;4.23;1.67;;;10.10;99.90;;;;;;5113387;28;20408;-70
2023/12/12 03:58:26;;;;;;;4.57;1.70;;;10.10;99.90;;;;;;5094364;28;20565;-69
2023/12/12 04:00:52;;;;;;;3.30;1.77;;;10.10;99.90;;;;;;5112950;28;20195;-70
2023/12/12 04:03:17;;;;;;;2.60;1.60;;;10.20;99.90;;;;;;5113625;28;20171;-70
2023/12/12 04:05:43;;;;;;;2.37;1.43;;;10.20;99.90;;;;;;5113130;28;20242;-70
2023/12/12 04:08:09;;;;;;;2.13;1.60;;;10.00;99.90;;;;;;5110551;28;20190;-69
2023/12/12 04:10:34;;;;;;;2.83;1.53;;;10.10;99.90;;;;;;5096728;28;20190;-69
2023/12/12 04:13:00;;;;;;;3.03;1.60;;;10.00;99.90;;;;;;5097384;28;20909;-69
2023/12/12 04:15:26;;;;;;;3.90;2.00;;;10.00;99.90;;;;;;5096806;28;20241;-70
2023/12/12 04:17:51;;;;;;;1.83;1.10;;;10.10;99.90;;;;;;5098162;28;20275;-70
2023/12/12 04:20:17;;;;;;;3.37;1.70;;;10.10;99.90;;;;;;5116889;28;20184;-70
2023/12/12 04:22:42;;;;;;;5.27;1.73;;;10.00;99.90;;;;;;5117511;28;20179;-70
2023/12/12 04:25:10;;;;;;;3.27;1.67;;;9.80;99.90;;;;;;5116808;28;20187;-70
2023/12/12 04:27:35;;;;;;;1.87;1.37;;;9.80;99.90;;;;;;5117089;28;20165;-70
2023/12/12 04:30:01;;;;;;;3.53;1.60;;;9.70;99.90;;;;;;5096387;28;20425;-70
2023/12/12 04:32:27;;;;;;;2.63;1.23;;;9.80;99.90;;;;;;5096515;28;20219;-69
2023/12/12 04:34:52;;;;;;;4.20;1.40;;;9.80;99.90;;;;;;5096478;28;20237;-70
2023/12/12 04:37:18;;;;;;;2.23;1.33;;;9.70;99.90;;;;;;5096080;28;20709;-70
2023/12/12 04:39:43;;;;;;;5.70;1.60;;;9.70;99.90;;;;;;5110456;28;20170;-70
2023/12/12 04:42:13;;;;;;;2.03;1.13;;;9.70;99.90;;;;;;5116414;28;20530;-70
2023/12/12 04:44:41;;;;;;;2.27;1.40;;;9.70;99.90;;;;;;5116374;28;20241;-70
2023/12/12 04:47:07;;;;;;;3.60;1.30;;;9.60;99.90;;;;;;5116731;28;20405;-70
2023/12/12 04:49:32;;;;;;;2.20;1.63;;;9.60;99.90;;;;;;5100566;28;20490;-70
2023/12/12 04:51:58;;;;;;;3.13;1.20;;;9.60;99.90;;;;;;5096340;28;20653;-70
2023/12/12 04:54:23;;;;;;;3.03;1.40;;;9.60;99.90;;;;;;5096098;28;20240;-70
2023/12/12 04:56:49;;;;;;;1.83;1.30;;;9.60;99.90;;;;;;5095869;28;20222;-70
2023/12/12 04:59:14;;;;;;;1.57;1.40;;;9.50;99.90;;;;;;5097674;28;20172;-69
2023/12/12 05:01:40;;;;;;;3.00;1.60;;;9.60;99.90;;;;;;5115914;28;20242;-70
2023/12/12 05:04:07;;;;;;;3.57;1.53;;;9.60;99.90;;;;;;5115953;28;20546;-70
2023/12/12 05:06:32;;;;;;;1.80;1.70;;;9.60;99.90;;;;;;5115876;28;20169;-70
2023/12/12 05:08:58;;;;;;;3.30;1.40;;;9.60;99.90;;;;;;5105061;28;20405;-70
2023/12/12 05:11:23;;;;;;;3.63;1.60;;;9.60;99.90;;;;;;5095625;28;20186;-69
2023/12/12 05:13:49;;;;;;;3.00;1.53;;;9.60;99.90;;;;;;5095421;28;20188;-70
2023/12/12 05:16:15;;;;;;;3.77;1.50;;;9.60;99.90;;;;;;5094050;28;20166;-70
2023/12/12 05:18:41;;;;;;;3.73;1.97;;;9.60;99.90;;;;;;5102615;28;20572;-69
2023/12/12 05:21:06;;;;;;;3.10;2.40;;;9.50;99.90;;;;;;5115391;28;20668;-70
2023/12/12 05:23:32;;;;;;;3.70;2.00;;;9.60;99.90;;;;;;5115890;28;20215;-70
2023/12/12 05:25:57;;;;;;;3.33;1.67;;;9.80;99.90;;;;;;5115894;28;20174;-70
2023/12/12 05:28:23;;;;;;;3.27;1.67;;;9.90;99.90;;;;;;5109861;28;20167;-69
2023/12/12 05:30:48;;;;;;;3.23;2.03;;;9.90;99.90;;;;;;5095232;28;20195;-70
2023/12/12 05:33:14;;;;;;;3.70;2.33;;;10.00;99.90;;;;;;5096062;28;20230;-70
2023/12/12 05:35:40;;;;;;;3.13;1.90;;;10.00;99.90;;;;;;5095418;28;20173;-70
2023/12/12 05:38:06;;;;;;;4.40;2.20;;;10.10;99.90;;;;;;5097991;28;20228;-69
2023/12/12 05:40:32;;;;;;;4.23;2.70;;;10.20;99.90;;;;;;5115323;28;20550;-68
2023/12/12 05:42:58;;;;;;;6.63;2.53;;;10.20;99.90;;;;;;5115556;28;20461;-70
2023/12/12 05:45:24;;;;;;;4.70;3.03;;;10.20;99.90;;;;;;5115137;28;20391;-70
2023/12/12 05:47:50;;;;;;;6.20;2.50;;;10.30;99.90;;;;;;5114466;28;20536;-70
2023/12/12 05:50:15;;;;;;;5.17;2.77;;;10.30;99.90;;;;;;5094810;28;20426;-70
2023/12/12 05:52:41;;;;;;;2.40;2.10;;;10.30;99.90;;;;;;5095176;28;20176;-70
2023/12/12 05:55:08;;;;;;;7.27;2.70;;;10.30;99.90;;;;;;5095407;28;20173;-72
2023/12/12 05:57:34;;;;;;;5.57;3.30;;;10.30;99.90;;;;;;5094834;28;20753;-72
2023/12/12 06:00:01;;;;;;;4.30;2.77;;;10.30;99.90;;;;;;5114076;28;20419;-71
2023/12/12 06:02:26;;;;;;;3.70;2.37;;;10.30;99.90;;;;;;5096817;28;20408;-70
2023/12/12 06:04:52;;;;;;;3.67;2.80;;;10.20;99.90;;;;;;5084696;28;20417;-72
2023/12/12 06:07:18;;;;;;;3.93;2.20;;;10.20;99.90;;;;;;5086548;28;20260;-71
2023/12/12 06:09:44;;;;;;;2.93;2.07;;;10.40;99.90;;;;;;5110568;28;20209;-72
2023/12/12 06:12:09;;;;;;;3.13;1.90;;;10.40;99.90;;;;;;5115026;28;20222;-72
2023/12/12 06:14:35;;;;;;;3.17;2.10;;;10.30;99.90;;;;;;5114692;28;20395;-72
2023/12/12 06:17:02;;;;;;;3.10;2.40;;;10.30;99.90;;;;;;5114598;28;20734;-74
2023/12/12 06:19:28;;;;;;;2.67;1.97;;;10.20;99.90;;;;;;5109945;28;20174;-72
2023/12/12 06:21:54;;;;;;;2.00;1.73;;;10.20;99.90;;;;;;5096748;28;20493;-72
2023/12/12 06:24:20;;;;;;;3.07;2.23;;;10.20;99.90;;;;;;5093482;28;20573;-72
2023/12/12 06:26:46;;;;;;;3.63;2.67;;;10.30;99.90;;;;;;5094419;28;20217;-72
2023/12/12 06:29:13;;;;;;;4.57;3.13;;;10.30;99.90;;;;;;5104577;28;20406;-72
2023/12/12 06:31:39;;;;;;;5.57;3.00;;;10.40;99.90;;;;;;5114125;28;20742;-73
2023/12/12 06:34:06;;;;;;;4.70;3.00;;;10.50;99.90;;;;;;5111090;28;20477;-72
2023/12/12 06:36:31;;;;;;;3.20;2.90;;;10.40;99.90;;;;;;5114958;28;20503;-72
2023/12/12 06:38:57;;;;;;;5.70;2.97;;;10.50;99.90;;;;;;5105100;28;20980;-72
2023/12/12 06:41:22;;;;;;;4.70;3.43;;;10.40;99.90;;;;;;5092368;28;20283;-72
2023/12/12 06:43:48;;;;;;;2.70;2.40;;;10.50;99.90;;;;;;5093506;28;20180;-73
2023/12/12 06:46:17;;;;;;;4.80;3.10;;;10.50;99.90;;;;;;5093486;28;20175;-73
2023/12/12 06:48:42;;;;;;;3.70;2.40;;;10.50;99.90;;;;;;5100775;28;20696;-72
2023/12/12 06:51:11;;;;;;;3.50;2.90;;;10.50;99.90;;;;;;5113900;28;20459;-72
2023/12/12 06:53:37;;;;;;;5.83;3.30;;;10.50;99.90;;;;;;5113777;28;20241;-72
2023/12/12 06:56:02;;;;;;;5.00;3.20;;;10.60;99.90;;;;;;5113883;28;20442;-72
2023/12/12 06:58:28;;;;;;;3.70;2.73;;;10.60;99.90;;;;;;5108818;28;20560;-72
2023/12/12 07:00:54;;;;;;;5.50;2.40;;;10.60;99.90;;;;;;5093390;28;20195;-72
2023/12/12 07:03:21;;;;;;;4.43;2.20;;;10.60;99.90;;;;;;5093601;28;20405;-71
2023/12/12 07:05:53;;;;;;;6.40;3.10;;;10.60;99.90;;;;;;5099054;28;20416;-72
2023/12/12 07:08:19;;;;;;;3.00;2.70;;;10.60;99.90;;;;;;5104415;28;20391;-73
2023/12/12 07:10:48;;;;;;;6.87;4.60;;;10.60;99.90;;;;;;5105267;28;20425;-72
2023/12/12 07:13:14;;;;;;;6.17;5.33;;;10.60;99.90;;;;;;5113744;28;20835;-72
2023/12/12 07:15:40;;;;;;;4.50;3.80;;;10.60;99.90;;;;;;5113889;28;20434;-72
2023/12/12 07:18:11;;;;;;;5.83;4.30;;;10.60;99.90;;;;;;5113468;28;20192;-72
2023/12/12 07:20:41;;;;;;;4.47;3.57;;;10.60;99.90;;;;;;5113187;28;20190;-71
2023/12/12 07:23:06;;;;;;;7.80;4.77;;;10.60;99.90;;;;;;5113089;28;20398;-72
2023/12/12 07:25:32;;;;;;;6.53;4.00;;;10.60;99.90;;;;;;5113421;28;20419;-71
2023/12/12 07:27:58;;;;;;;4.27;3.40;;;10.60;99.90;;;;;;5113389;28;20164;-72
2023/12/12 07:30:24;;;;;;;5.20;3.63;;;10.60;99.90;;;;;;5092970;28;20428;-72
2023/12/12 07:32:49;;;;;;;5.00;3.23;;;10.70;99.90;;;;;;5093366;28;20537;-72
2023/12/12 07:35:16;;;;;;;12.27;3.73;;;10.70;99.90;;;;;;5093068;28;20169;-71
2023/12/12 07:37:42;;;;;;;4.50;3.60;;;10.70;99.90;;;;;;5092857;28;20221;-72
2023/12/12 07:40:08;;;;;;;3.70;2.90;;;10.80;99.90;;;;;;5111036;28;20461;-71
2023/12/12 07:42:34;;;;;;;5.13;2.30;;;10.90;99.90;;;;;;5112625;28;20537;-72
2023/12/12 07:45:00;;;;;;;6.60;2.87;;;10.80;99.90;;;;;;5113286;28;20448;-72
2023/12/12 07:47:26;;;;;;;3.20;2.40;;;10.90;99.90;;;;;;5113284;28;20904;-70
2023/12/12 07:49:52;;;;;;;5.77;2.97;;;11.00;99.90;;;;;;5097372;28;20175;-72
2023/12/12 07:52:18;;;;;;;6.90;2.87;;;11.10;99.90;;;;;;5093042;28;20176;-72
2023/12/12 07:54:43;;;;;;;4.63;2.50;;;11.10;99.90;;;;;;5092746;28;20878;-72
2023/12/12 07:57:09;;;;;;;3.30;2.33;;;11.00;99.90;;;;;;5091355;28;20205;-72
2023/12/12 07:59:35;;;;;;;4.03;2.50;;;11.00;99.90;;;;;;5105557;28;20177;-72
2023/12/12 08:02:01;;;;;;;6.50;2.30;;;11.00;99.90;;;;;;5093649;28;20515;-72
2023/12/12 08:04:27;;;;;;;6.37;3.03;;;10.90;99.90;;;;;;5092885;28;20157;-72
2023/12/12 08:06:53;;;;;;;4.20;2.60;;;10.90;99.90;;;;;;5092839;28;20405;-72
2023/12/12 08:09:19;;;;;;;4.00;2.33;;;10.90;99.90;;;;;;5103536;28;20420;-72
2023/12/12 08:11:44;;;;;;;4.27;2.60;;;11.00;99.90;;;;;;5112837;28;20198;-72
2023/12/12 08:14:10;;;;;;;3.70;2.50;;;11.00;99.90;;;;;;5112939;28;20679;-72
2023/12/12 08:16:35;;;;;;;3.03;2.60;;;11.00;99.90;;;;;;5112923;28;20634;-72
2023/12/12 08:19:01;;;;;;;4.13;2.63;;;11.00;99.90;;;;;;5104554;28;20196;-73
2023/12/12 08:21:27;;;;;;;3.87;2.90;;;11.10;99.90;;;;;;5092629;28;20561;-72
2023/12/12 08:23:54;;;;;;;4.03;2.93;;;11.10;99.90;;;;;;5091762;28;20180;-72
2023/12/12 08:26:22;;;;;;;5.57;2.90;;;11.10;99.90;;;;;;5092619;28;20403;-72
2023/12/12 08:28:48;;;;;;;4.53;2.70;;;11.10;99.90;;;;;;5099106;28;20497;-72
2023/12/12 08:31:13;;;;;;;3.17;2.23;;;11.10;99.90;;;;;;5109386;28;20505;-72
2023/12/12 08:33:39;;;;;;;3.17;2.40;;;11.20;99.90;;;;;;5113064;28;20635;-72
2023/12/12 08:36:05;;;;;;;3.10;2.30;;;11.30;99.90;;;;;;5113029;28;20923;-72
2023/12/12 08:38:31;;;;;;;3.33;3.03;;;11.30;99.90;;;;;;5108641;28;20288;-72
2023/12/12 08:40:57;;;;;;;3.10;2.07;;;11.40;99.90;;;;;;5092195;28;20535;-72
2023/12/12 08:43:23;;;;;;;2.43;2.17;;;11.30;99.90;;;;;;5092366;28;20173;-72
2023/12/12 08:45:50;;;;;;;7.93;7.23;;;11.00;99.90;;;;;;5092271;28;20177;-72
2023/12/12 08:48:16;;;;;;;3.03;2.50;;;11.00;99.90;;;;;;5093752;28;20400;-72
2023/12/12 08:50:41;;;;;;;2.10;1.53;;;11.20;99.90;;;;;;5112489;28;20902;-72
2023/12/12 08:53:07;;;;;;;4.57;2.97;;;11.00;99.90;;;;;;5113319;28;20178;-72
2023/12/12 08:55:33;;;;;;;4.80;2.70;;;11.00;99.90;;;;;;5116601;28;20190;-72
2023/12/12 08:57:59;;;;;;;5.70;3.43;;;10.70;99.90;;;;;;5116186;28;20538;-72
2023/12/12 09:00:24;;;;;;;5.73;3.40;;;10.90;99.90;;;;;;5096634;28;20197;-72
2023/12/12 09:02:50;;;;;;;4.97;3.40;;;11.00;99.90;;;;;;5095683;28;20165;-72
2023/12/12 09:05:15;;;;;;;4.60;3.03;;;10.80;99.90;;;;;;5095434;28;20234;-71
2023/12/12 09:07:41;;;;;;;4.60;3.33;;;10.80;99.90;;;;;;5095513;28;20254;-71
2023/12/12 09:10:07;;;;;;;4.90;3.47;;;11.00;99.90;;;;;;5112126;28;20576;-72
2023/12/12 09:12:34;;;;;;;5.10;3.73;;;10.90;99.90;;;;;;5116099;28;20171;-71
2023/12/12 09:15:00;;;;;;;5.20;3.13;;;10.90;99.90;;;;;;5116323;28;20954;-71
2023/12/12 09:17:25;;;;;;;5.60;3.07;;;11.10;99.90;;;;;;5115949;28;20958;-71
2023/12/12 09:19:51;;;;;;;5.40;2.87;;;11.20;99.90;;;;;;5101232;28;20421;-72
2023/12/12 09:22:16;;;;;;;4.53;2.67;;;11.30;99.90;;;;;;5095817;28;20260;-72
2023/12/12 09:24:42;;;;;;;3.67;2.70;;;11.50;99.90;;;;;;5095460;28;20205;-71
2023/12/12 09:27:07;;;;;;;3.73;2.93;;;11.40;99.90;;;;;;5095249;28;20589;-71
2023/12/12 09:29:33;;;;;;;3.70;2.90;;;11.40;99.90;;;;;;5106863;28;20262;-71
2023/12/12 09:31:59;;;;;;;2.87;2.50;;;11.40;99.90;;;;;;5115446;28;20192;-72
2023/12/12 09:34:24;;;;;;;4.10;2.90;;;11.50;99.90;;;;;;5115440;28;20248;-72
2023/12/12 09:36:50;;;;;;;4.50;2.47;;;11.60;99.90;;;;;;5115360;28;20219;-72
2023/12/12 09:39:17;;;;;;;5.00;2.90;;;11.70;99.90;;;;;;5106275;28;20651;-72
2023/12/12 09:41:47;;;;;;;3.50;2.30;;;11.80;99.90;;;;;;5094881;28;20801;-72
2023/12/12 09:44:17;;;;;;;3.90;3.10;;;11.80;99.90;;;;;;5095236;28;20496;-71
2023/12/12 09:46:44;;;;;;;3.53;2.73;;;11.80;99.90;;;;;;5094858;28;20411;-72
2023/12/12 09:49:11;;;;;;;5.27;3.10;;;11.90;99.90;;;;;;5102971;28;20774;-72
2023/12/12 09:51:41;;;;;;;5.40;3.13;;;11.80;99.90;;;;;;5115143;28;20430;-72
2023/12/12 09:54:09;;;;;;;4.17;2.77;;;11.80;99.90;;;;;;5098898;28;20803;-71
2023/12/12 09:56:37;;;;;;;4.10;2.30;;;11.70;99.90;;;;;;5094936;28;20407;-72
2023/12/12 09:59:05;;;;;;;2.67;2.40;;;11.70;99.90;;;;;;5101754;28;20904;-72
2023/12/12 10:01:34;;;;;;;4.07;2.23;;;11.70;99.90;;;;;;5114704;28;20540;-71
2023/12/12 10:04:08;;;;;;;2.00;1.80;;;11.40;99.90;;;;;;5114877;28;20413;-70
2023/12/12 10:06:42;;;;;;;7.00;2.63;;;11.10;99.90;;;;;;5114556;28;20821;-71
2023/12/12 10:09:08;;;;;;;3.57;2.63;;;10.90;99.90;;;;;;5107477;28;20388;-71
2023/12/12 10:11:34;;;;;;;2.10;1.90;;;10.70;99.90;;;;;;5094442;28;20430;-71
2023/12/12 10:14:00;;;;;;;3.10;2.30;;;10.70;99.90;;;;;;5094340;28;20825;-72
2023/12/12 10:16:27;;;;;;;4.90;2.90;;;10.70;99.90;;;;;;5094235;28;20203;-71
2023/12/12 10:18:53;;;;;;;3.20;2.63;;;10.60;99.90;;;;;;5099466;28;20402;-72
2023/12/12 10:21:20;;;;;;;3.40;2.60;;;10.40;99.90;;;;;;5111155;28;20415;-72
2023/12/12 10:23:52;;;;;;;3.53;2.40;;;10.40;99.90;;;;;;5116073;28;20518;-69
2023/12/12 10:26:33;;;;;;;4.03;2.80;;;10.50;99.90;;;;;;5114660;28;20752;-69
2023/12/12 10:29:00;;;;;;;3.53;2.20;;;10.50;99.90;;;;;;5099388;28;20402;-69
2023/12/12 10:31:26;;;;;;;2.83;1.80;;;10.40;99.90;;;;;;5114602;28;20422;-70
2023/12/12 10:33:53;;;;;;;4.50;2.70;;;10.40;99.90;;;;;;5114386;28;20401;-67
2023/12/12 10:36:19;;;;;;;3.67;2.27;;;10.50;99.90;;;;;;5114244;28;20492;-70
2023/12/12 10:38:44;;;;;;;4.40;2.30;;;10.50;99.90;;;;;;5110296;28;20501;-69
2023/12/12 10:41:18;;;;;;;2.83;2.07;;;10.50;99.90;;;;;;5094298;28;20189;-69
2023/12/12 10:43:45;;;;;;;6.50;2.10;;;10.70;99.90;;;;;;5094164;28;20252;-70
2023/12/12 10:46:13;;;;;;;3.87;2.10;;;10.70;99.90;;;;;;5094167;28;20415;-70
2023/12/12 10:48:46;;;;;;;3.37;1.80;;;10.70;99.90;;;;;;5096670;28;20460;-69
2023/12/12 10:51:13;;;;;;;3.97;1.90;;;10.70;99.90;;;;;;5114007;28;20429;-69
2023/12/12 10:53:41;;;;;;;3.07;1.83;;;10.70;99.90;;;;;;5113996;28;20849;-69
2023/12/12 10:56:08;;;;;;;5.80;2.53;;;10.80;99.90;;;;;;5113866;28;20413;-70
2023/12/12 10:58:35;;;;;;;5.03;2.40;;;10.60;99.90;;;;;;5111724;28;20453;-69
2023/12/12 11:01:02;;;;;;;2.73;1.97;;;10.60;99.90;;;;;;5093477;28;20514;-69
2023/12/12 11:03:29;;;;;;;2.10;1.87;;;10.50;99.90;;;;;;5093490;28;20410;-68
2023/12/12 11:05:58;;;;;;;3.60;1.60;;;10.50;99.90;;;;;;5093705;28;20404;-69
2023/12/12 11:08:26;;;;;;;2.67;1.40;;;10.50;99.90;;;;;;5093899;28;20946;-69
2023/12/12 11:10:52;;;;;;;2.53;1.53;;;10.60;99.90;;;;;;5113371;28;20525;-69
2023/12/12 11:13:26;;;;;;;1.80;1.60;;;10.60;99.90;;;;;;5113385;28;20416;-70
2023/12/12 11:15:53;;;;;;;2.80;1.93;;;10.50;99.90;;;;;;5113200;28;20406;-69
2023/12/12 11:18:20;;;;;;;2.43;1.83;;;10.60;99.90;;;;;;5112599;28;20450;-70
2023/12/12 11:20:47;;;;;;;3.70;1.77;;;10.50;99.90;;;;;;5093184;28;20430;-70
2023/12/12 11:23:53;;;;;;;4.00;1.77;;;10.60;99.90;;;;;;5093193;28;20410;-69
2023/12/12 11:26:21;;;;;;;1.73;1.27;;;10.70;99.90;;;;;;5093430;28;20406;-69
2023/12/12 11:28:48;;;;;;;3.37;1.60;;;10.80;99.90;;;;;;5096680;28;20937;-69
2023/12/12 11:32:16;;;;;;;2.60;1.37;;;10.90;99.90;;;;;;5095017;28;20436;-70
2023/12/12 11:34:42;;;;;;;1.70;1.37;;;11.00;99.90;;;;;;5018097;28;20417;-69
2023/12/12 11:37:10;;;;;;;4.00;1.60;;;11.10;99.90;;;;;;5096640;28;20813;-70
2023/12/12 11:39:44;;;;;;;2.47;1.30;;;11.10;99.90;;;;;;5103373;28;20638;-70
2023/12/12 11:42:29;;;;;;;2.50;1.10;;;11.10;99.90;;;;;;5093327;28;20844;-70
2023/12/12 11:44:55;;;;;;;1.40;1.00;;;11.30;99.90;;;;;;5093190;28;20383;-71
2023/12/12 11:47:24;;;;;;;2.67;1.03;;;11.40;99.90;;;;;;5103875;28;20410;-71
2023/12/12 11:49:50;;;;;;;2.23;1.33;;;11.40;99.90;;;;;;5101429;28;20978;-70
2023/12/12 11:52:52;;;;;;;1.27;1.17;;;11.50;99.90;;;;;;5092917;28;21038;-69
2023/12/12 11:55:20;;;;;;;2.60;1.13;;;11.50;99.90;;;;;;5010992;28;20549;-70
2023/12/12 11:57:46;;;;;;;1.40;1.30;;;11.60;99.90;;;;;;5077803;28;20462;-70
2023/12/12 12:00:20;;;;;;;1.77;1.20;;;11.70;99.90;;;;;;5107570;28;20450;-70
2023/12/12 12:02:46;;;;;;;6.30;1.27;;;11.80;99.90;;;;;;5113806;28;20779;-70
2023/12/12 12:05:12;;;;;;;2.93;1.30;;;11.70;99.90;;;;;;5113218;28;20399;-70
2023/12/12 12:07:40;;;;;;;1.50;1.40;;;11.70;99.90;;;;;;5113407;28;20177;-70
2023/12/12 12:10:08;;;;;;;2.03;1.30;;;11.70;99.90;;;;;;5099722;28;20195;-70
2023/12/12 12:12:34;;;;;;;3.03;1.57;;;11.80;99.90;;;;;;5093279;28;20406;-70
2023/12/12 12:15:05;;;;;;;3.43;1.20;;;11.80;99.90;;;;;;5091492;28;20420;-70
2023/12/12 12:17:35;;;;;;;1.20;1.00;;;11.90;99.90;;;;;;5095121;28;20240;-70
2023/12/12 12:20:00;;;;;;;3.20;1.23;;;11.90;99.90;;;;;;5105548;28;20485;-71
2023/12/12 12:22:26;;;;;;;2.00;1.37;;;12.10;99.90;;;;;;5103240;28;20418;-70
2023/12/12 12:24:51;;;;;;;1.70;1.30;;;12.20;99.90;;;;;;5092609;28;20175;-70
2023/12/12 12:27:17;;;;;;;3.07;1.17;;;12.10;99.90;;;;;;5092631;28;20177;-71
2023/12/12 12:29:57;;;;;;;2.37;1.17;;;12.10;99.90;;;;;;5105864;28;20180;-70
2023/12/12 12:32:23;;;;;;;4.90;1.50;;;12.00;99.90;;;;;;5117248;28;20152;-70
2023/12/12 12:34:48;;;;;;;1.53;1.20;;;12.00;99.90;;;;;;5116973;28;20893;-70
2023/12/12 12:37:32;;;;;;;2.77;1.43;;;12.10;99.90;;;;;;5116551;28;20204;-70
2023/12/12 12:39:58;;;;;;;1.73;1.50;;;12.10;99.90;;;;;;5104292;28;20170;-70
2023/12/12 12:42:34;;;;;;;1.97;1.43;;;12.00;99.90;;;;;;5096257;28;20408;-70
2023/12/12 12:45:01;;;;;;;2.40;1.50;;;12.10;99.90;;;;;;5096038;28;20520;-70
2023/12/12 12:47:26;;;;;;;2.70;1.30;;;12.10;99.90;;;;;;5095426;28;20770;-70